Aeroporto :
LOGIN :

Iscrizione | Disclaimer

   EN    FR    IT 

 










Sommario :    VFR   VFR Marginale   IFR   IFR Intensivo   IFR Molto Intensivo
Visibilità : 
Base nubi : 
>= 8 km
>= 3000ft
5 / 8 km
1000 / 3000 ft
1500m / 5 km
500 / 1000 ft
800 / 1500m
200 / 500 ft
< 800m
< 200 ft
Simboli :   Temporali  Nebbia  Neve Forte  Precipitazioni Forti  Vento > 20 kt
SIGMETs :   Varie  Temporali  Ghiacco  Turbolenza  Onda orograficha  Ceneri Vulcaniche






- Altitudine del aeroporto : 46 ft
- Codice IATA : SNN


EINN - Shannon

ULTIMO METAR :
  • 251830Z 22008KT 9999 FEW016 BKN019 15/12 Q1031 NOSIG

METARs OBSOLETI :
  • 251800Z 21010KT 9999 FEW016 BKN019 16/11 Q1031 NOSIG
  • 251730Z 20009KT 9999 FEW017 BKN021 16/11 Q1031 NOSIG
  • 251700Z 19008KT 9999 FEW018 BKN023 16/11 Q1031 NOSIG
  • 251630Z 19009KT 9999 FEW019 BKN024 16/11 Q1031 NOSIG
  • 251600Z 18010KT 9999 FEW020 BKN027 16/11 Q1031 NOSIG

TAF TAF EINN
Valido dal 25 a 18 ore il 26 a 18 ore UTC


251700Z 2518/2618 19010KT 9999 FEW012 BKN025
TEMPO 2518/2520 7000 -RA BKN010
BECMG 2519/2521 22008KT
TEMPO 2520/2609 4000 -RADZ BR BKN005
BECMG 2521/2523 27007KT
PROB30
TEMPO 2521/2608 2000 BKN003
BECMG 2523/2601 VRB03KT
TEMPO 2601/2604 27005KT
BECMG 2609/2611 33005KT FEW012 BKN030



MetMap, La meteo Aeronautica in un colpo d'occhio ! - Copyright ORBIFLY Dicembre 2007 - Disclaimer

ORBIFLY MET'MAP TEAM :

Programmazione e sviluppo : Alexandra Zaïnal
Concezione : Baudouin d'Aumeries
Aiuto per la programmazione : Marc-Olivier Méhu
Supporto tecnico e logistico : Manuel Goepfert
Aiuto per la traduzione : Arnaldo La Scala

Contatto : metmap@orbifly.com




FONTI E CREDITI :

   NOAA